Agoura, California
Current Conditions -  °F | °C
As of 1:51 PM on Thursday 27 Nov 2014 (Local Time) from KVNY Reporting Station
Clear Clear  
Wind Chill: 88°   Ceiling: Unl
Heat Index: 88°   Visibility: 10mi
Dew Point: 16°   Wind: 3mph
Humidity: 7%   Direction: NA
Pressure: 30.02"   Gusts: NA
Location:  34.1232°N, 118.77°W
Report Text: KVNY 272151Z VRB03KT 10SM CLR 31/M09 A3002 RMK AO2 SLP158 T03111089
Loading
Personal Weather Stations






























Interactive Weather Map New forecast layout! Learn more

10-Day Weather Forecast

Advertisements
Track Severe Weather on mobile